createdAt,value
2022-09-22T00:01:35.977Z,47.25
2022-09-22T00:04:07.587Z,51.83
2022-09-22T00:06:38.779Z,54.13
2022-09-22T00:09:08.489Z,52.42
2022-09-22T00:11:39.038Z,50.80
2022-09-22T00:14:10.068Z,55.67
2022-09-22T00:16:41.985Z,51.75
2022-09-22T00:19:12.792Z,53.53
2022-09-22T00:21:41.244Z,53.67
2022-09-22T00:24:09.263Z,53.40
2022-09-22T00:26:38.338Z,59.85
2022-09-22T00:29:09.329Z,58.47
2022-09-22T00:31:38.287Z,55.47
2022-09-22T00:34:06.557Z,54.60
2022-09-22T00:36:36.211Z,53.03
2022-09-22T00:39:04.293Z,62.70
2022-09-22T00:41:36.323Z,55.47
2022-09-22T00:46:54.583Z,63.63
2022-09-22T00:49:28.698Z,63.17
2022-09-22T00:51:57.985Z,61.85
2022-09-22T00:54:26.244Z,71.28
2022-09-22T00:56:58.963Z,68.65
2022-09-22T00:59:27.905Z,68.38
2022-09-22T01:01:56.655Z,73.93
2022-09-22T01:04:24.688Z,77.30
2022-09-22T01:06:53.966Z,72.05
2022-09-22T01:09:24.056Z,69.95
2022-09-22T01:11:52.867Z,73.20
2022-09-22T01:14:30.184Z,78.25
2022-09-22T01:17:05.932Z,79.95
2022-09-22T01:20:10.609Z,77.18
2022-09-22T01:23:01.389Z,89.75
2022-09-22T01:25:51.096Z,87.38
2022-09-22T01:28:45.963Z,96.07
2022-09-22T01:31:19.180Z,100.45
2022-09-22T01:33:53.143Z,98.57
2022-09-22T01:36:27.145Z,96.90
2022-09-22T01:39:03.812Z,99.85
2022-09-22T01:41:48.902Z,101.68
2022-09-22T01:44:21.606Z,102.25
2022-09-22T01:46:55.706Z,99.63
2022-09-22T01:49:27.657Z,99.65
2022-09-22T01:51:59.327Z,97.55
2022-09-22T01:54:33.041Z,105.82
2022-09-22T01:57:19.521Z,90.07
2022-09-22T01:59:52.717Z,90.20
2022-09-22T02:02:29.278Z,92.53
2022-09-22T02:05:01.472Z,92.43
2022-09-22T02:10:06.736Z,94.32
2022-09-22T02:12:35.817Z,97.00
2022-09-22T02:15:04.554Z,94.85
2022-09-22T02:17:35.411Z,104.80
2022-09-22T02:20:06.420Z,104.85
2022-09-22T02:22:34.961Z,106.53
2022-09-22T02:25:02.749Z,94.57
2022-09-22T02:27:36.717Z,100.43
2022-09-22T02:30:09.452Z,92.30
2022-09-22T02:32:42.533Z,91.35
2022-09-22T02:35:11.166Z,97.00
2022-09-22T02:37:46.299Z,94.55
2022-09-22T02:40:23.332Z,98.15
2022-09-22T02:43:00.935Z,91.68
2022-09-22T02:45:33.060Z,98.10
2022-09-22T02:50:35.217Z,93.47
2022-09-22T02:53:05.516Z,99.85
2022-09-22T02:55:33.249Z,99.47
2022-09-22T02:58:01.417Z,104.35
2022-09-22T03:00:29.351Z,101.68
2022-09-22T03:02:57.048Z,106.72
2022-09-22T03:05:26.690Z,105.20
2022-09-22T03:07:55.672Z,103.82
2022-09-22T03:10:23.507Z,101.70
2022-09-22T03:13:15.032Z,109.00
2022-09-22T03:15:39.719Z,99.53
2022-09-22T03:18:07.569Z,102.45
2022-09-22T03:20:37.213Z,92.68
2022-09-22T03:23:05.307Z,97.22
2022-09-22T03:25:33.518Z,84.88
2022-09-22T03:28:01.505Z,99.65
2022-09-22T03:30:29.870Z,104.28
2022-09-22T03:32:57.871Z,94.30
2022-09-22T03:35:25.575Z,93.28
2022-09-22T03:37:54.897Z,95.30
2022-09-22T03:40:23.255Z,93.20
2022-09-22T03:42:51.093Z,88.65
2022-09-22T03:45:19.222Z,86.10
2022-09-22T03:47:47.441Z,89.65
2022-09-22T03:50:15.247Z,85.90
2022-09-22T03:52:44.901Z,86.10
2022-09-22T03:55:14.065Z,79.03
2022-09-22T03:57:43.767Z,86.38
2022-09-22T04:00:15.379Z,86.00
2022-09-22T04:02:43.531Z,78.40
2022-09-22T04:05:11.597Z,85.03
2022-09-22T04:07:39.935Z,84.25
2022-09-22T04:10:08.975Z,86.35
2022-09-22T04:12:38.161Z,84.10
2022-09-22T04:15:07.303Z,84.38
2022-09-22T04:17:36.964Z,91.60
2022-09-22T04:20:05.593Z,94.40
2022-09-22T04:22:33.751Z,102.68
2022-09-22T04:25:01.577Z,92.55
2022-09-22T04:27:29.302Z,89.55
2022-09-22T04:30:00.799Z,87.82
2022-09-22T04:32:28.626Z,87.82
2022-09-22T04:34:56.365Z,92.55
2022-09-22T04:37:24.698Z,95.78
2022-09-22T04:39:54.229Z,103.80
2022-09-22T04:42:21.995Z,109.22
2022-09-22T04:44:50.065Z,108.88
2022-09-22T04:47:19.468Z,103.97
2022-09-22T04:49:47.181Z,114.13
2022-09-22T04:52:15.057Z,110.65
2022-09-22T04:54:42.946Z,105.35
2022-09-22T04:57:10.665Z,110.38
2022-09-22T04:59:38.539Z,117.03
2022-09-22T05:02:06.512Z,112.72
2022-09-22T05:04:35.561Z,110.85
2022-09-22T05:07:03.470Z,120.78
2022-09-22T05:09:31.700Z,138.52
2022-09-22T05:12:01.113Z,144.48
2022-09-22T05:14:29.025Z,124.53
2022-09-22T05:16:57.204Z,120.05
2022-09-22T05:19:25.385Z,127.55
2022-09-22T05:21:54.722Z,128.00
2022-09-22T05:24:22.732Z,130.18
2022-09-22T05:26:50.539Z,132.65
2022-09-22T05:29:18.692Z,140.82
2022-09-22T05:31:47.236Z,134.88
2022-09-22T05:34:14.997Z,131.55
2022-09-22T05:36:42.940Z,141.02
2022-09-22T05:39:12.257Z,129.43
2022-09-22T05:41:40.188Z,136.35
2022-09-22T05:44:08.196Z,133.43
2022-09-22T05:46:36.081Z,133.93
2022-09-22T05:49:03.786Z,152.18
2022-09-22T05:51:31.752Z,134.70
2022-09-22T05:53:59.645Z,126.18
2022-09-22T05:56:28.971Z,130.35
2022-09-22T05:58:56.875Z,130.50
2022-09-22T06:01:25.470Z,122.05
2022-09-22T06:03:53.293Z,131.02
2022-09-22T06:06:21.269Z,131.18
2022-09-22T06:08:49.407Z,103.47
2022-09-22T06:11:17.201Z,110.50
2022-09-22T06:13:50.420Z,115.10
2022-09-22T06:16:18.544Z,111.82
2022-09-22T06:18:46.597Z,116.65
2022-09-22T06:21:14.331Z,111.30
2022-09-22T06:23:43.136Z,83.88
2022-09-22T06:26:11.808Z,100.85
2022-09-22T06:28:39.540Z,104.18
2022-09-22T06:31:08.909Z,106.93
2022-09-22T06:33:36.813Z,87.13
2022-09-22T06:36:07.934Z,72.85
2022-09-22T06:38:35.974Z,76.50
2022-09-22T06:41:04.251Z,58.00
2022-09-22T06:43:37.764Z,62.75
2022-09-22T06:46:06.173Z,54.60
2022-09-22T06:48:35.683Z,52.00
2022-09-22T06:51:03.433Z,57.15
2022-09-22T06:53:32.266Z,49.28
2022-09-22T06:56:01.969Z,39.67
2022-09-22T06:58:38.622Z,48.97
2022-09-22T07:01:15.240Z,51.38
2022-09-22T07:03:46.057Z,32.40
2022-09-22T07:06:20.225Z,32.30
2022-09-22T07:08:50.321Z,29.02
2022-09-22T07:11:23.440Z,30.15
2022-09-22T07:13:53.522Z,30.48
2022-09-22T07:16:24.221Z,29.35
2022-09-22T07:18:56.317Z,32.40
2022-09-22T07:21:26.329Z,26.63
2022-09-22T07:23:56.239Z,26.05
2022-09-22T07:26:26.416Z,27.00
2022-09-22T07:28:54.978Z,33.10
2022-09-22T07:31:28.438Z,27.00
2022-09-22T07:34:00.104Z,30.98
2022-09-22T07:36:30.025Z,33.47
2022-09-22T07:38:59.404Z,33.22
2022-09-22T07:41:28.872Z,37.97
2022-09-22T07:44:18.566Z,32.40
2022-09-22T07:46:47.051Z,29.83
2022-09-22T07:49:17.586Z,28.05
2022-09-22T07:51:45.347Z,39.65
2022-09-22T07:54:13.376Z,30.60
2022-09-22T07:56:43.606Z,23.13
2022-09-22T07:59:13.074Z,26.95
2022-09-22T08:01:44.358Z,24.40
2022-09-22T08:04:16.777Z,23.02
2022-09-22T08:06:48.616Z,24.83
2022-09-22T08:09:18.262Z,22.90
2022-09-22T08:11:48.467Z,24.27
2022-09-22T08:14:18.185Z,23.45
2022-09-22T08:16:46.828Z,23.45
2022-09-22T08:19:15.647Z,26.42
2022-09-22T08:21:49.321Z,26.70
2022-09-22T08:24:22.273Z,22.70
2022-09-22T08:26:52.340Z,20.98
2022-09-22T08:29:21.470Z,17.83
2022-09-22T08:31:51.398Z,18.92
2022-09-22T08:34:20.098Z,20.30
2022-09-22T08:36:51.078Z,17.13
2022-09-22T08:39:19.447Z,21.33
2022-09-22T08:42:02.093Z,21.13
2022-09-22T08:44:37.385Z,21.40
2022-09-22T08:47:05.776Z,15.95
2022-09-22T08:49:56.254Z,16.02
2022-09-22T08:52:32.198Z,16.42
2022-09-22T08:55:01.959Z,14.13
2022-09-22T08:57:46.041Z,13.27
2022-09-22T09:00:17.103Z,12.02
2022-09-22T09:02:52.292Z,18.13
2022-09-22T09:06:00.193Z,14.88
2022-09-22T09:08:48.059Z,19.40
2022-09-22T09:11:31.891Z,16.23
2022-09-22T09:14:18.481Z,15.25
2022-09-22T09:16:51.677Z,10.82
2022-09-22T09:19:23.441Z,11.50
2022-09-22T09:21:53.412Z,11.63
2022-09-22T09:27:23.832Z,11.27
2022-09-22T09:30:01.315Z,6.70
2022-09-22T09:32:37.641Z,7.57
2022-09-22T09:35:07.063Z,6.68
2022-09-22T09:37:35.706Z,7.57
2022-09-22T09:40:08.530Z,7.78
2022-09-22T09:42:36.857Z,6.72
2022-09-22T09:45:05.715Z,8.00
2022-09-22T09:47:59.734Z,6.15
2022-09-22T09:50:32.362Z,5.97
2022-09-22T09:53:00.534Z,6.78
2022-09-22T09:55:31.669Z,7.35
2022-09-22T09:58:03.699Z,9.55
2022-09-22T10:00:31.965Z,8.07
2022-09-22T10:03:24.851Z,7.20
2022-09-22T10:05:59.036Z,9.63
2022-09-22T10:08:28.277Z,7.97
2022-09-22T10:11:00.034Z,9.18
2022-09-22T10:13:31.665Z,7.40
2022-09-22T10:16:06.756Z,7.70
2022-09-22T10:18:40.290Z,4.95
2022-09-22T10:21:15.720Z,6.22
2022-09-22T10:23:47.569Z,4.75
2022-09-22T10:26:26.306Z,7.28
2022-09-22T10:29:10.604Z,6.82
2022-09-22T10:31:39.437Z,5.97
2022-09-22T10:34:25.211Z,12.32
2022-09-22T10:36:53.689Z,5.43
2022-09-22T10:39:28.208Z,6.68
2022-09-22T10:41:57.746Z,7.35
2022-09-22T10:44:44.056Z,5.15
2022-09-22T10:47:31.321Z,7.65
2022-09-22T10:50:30.495Z,5.45
2022-09-22T10:53:11.928Z,6.22
2022-09-22T10:55:44.656Z,8.38
2022-09-22T10:58:27.728Z,7.72
2022-09-22T11:01:11.755Z,5.60
2022-09-22T11:04:06.998Z,3.30
2022-09-22T11:07:07.547Z,3.90
2022-09-22T11:09:59.567Z,4.32
2022-09-22T11:12:42.581Z,3.33
2022-09-22T11:15:24.632Z,3.75
2022-09-22T11:18:22.169Z,3.17
2022-09-22T11:20:59.680Z,2.45
2022-09-22T11:23:43.478Z,3.35
2022-09-22T11:26:29.953Z,4.95
2022-09-22T11:29:26.196Z,3.97
2022-09-22T11:32:03.996Z,4.00
2022-09-22T11:34:48.765Z,3.78
2022-09-22T11:37:28.193Z,5.25
2022-09-22T11:40:15.559Z,5.15
2022-09-22T11:42:53.088Z,4.78
2022-09-22T11:45:38.313Z,3.50
2022-09-22T11:48:18.681Z,5.20
2022-09-22T11:51:02.022Z,4.20
2022-09-22T11:53:46.534Z,3.97
2022-09-22T11:56:33.326Z,6.15
2022-09-22T11:59:05.400Z,3.40
2022-09-22T12:01:38.949Z,3.00
2022-09-22T12:04:20.900Z,3.30
2022-09-22T12:06:52.919Z,3.15
2022-09-22T12:09:35.914Z,3.83
2022-09-22T12:12:07.293Z,3.53
2022-09-22T12:14:36.197Z,4.30
2022-09-22T12:17:10.052Z,8.23
2022-09-22T12:19:53.349Z,6.38
2022-09-22T12:22:27.684Z,6.25
2022-09-22T12:24:55.810Z,4.95
2022-09-22T12:27:26.045Z,6.47
2022-09-22T12:29:56.209Z,6.00
2022-09-22T12:32:27.838Z,5.57
2022-09-22T12:35:01.465Z,6.20
2022-09-22T12:37:32.949Z,5.60
2022-09-22T12:40:19.896Z,5.10
2022-09-22T12:42:52.446Z,4.38
2022-09-22T12:48:00.488Z,4.25
2022-09-22T12:50:37.969Z,3.72
2022-09-22T12:53:12.358Z,3.30
2022-09-22T12:55:40.701Z,2.63
2022-09-22T12:58:39.993Z,5.13
2022-09-22T13:01:33.413Z,7.43
2022-09-22T13:04:19.516Z,6.68
2022-09-22T13:07:00.865Z,3.08
2022-09-22T13:09:33.912Z,4.60
2022-09-22T13:12:28.104Z,4.43
2022-09-22T13:15:11.076Z,2.85
2022-09-22T13:17:43.098Z,2.55
2022-09-22T13:20:19.833Z,3.10
2022-09-22T13:22:49.431Z,2.58
2022-09-22T13:25:22.849Z,2.50
2022-09-22T13:28:04.189Z,1.70
2022-09-22T13:30:33.020Z,3.10
2022-09-22T13:33:00.898Z,3.90
2022-09-22T13:35:31.607Z,2.95
2022-09-22T13:38:01.592Z,4.05
2022-09-22T13:40:34.733Z,3.15
2022-09-22T13:43:07.913Z,3.63
2022-09-22T13:45:38.974Z,5.07
2022-09-22T13:48:10.622Z,5.30
2022-09-22T13:50:43.866Z,3.83
2022-09-22T13:53:18.037Z,4.57
2022-09-22T13:55:49.402Z,4.40
2022-09-22T13:58:25.113Z,5.10
2022-09-22T14:01:14.515Z,4.07
2022-09-22T14:03:44.293Z,5.60
2022-09-22T14:06:16.069Z,6.53
2022-09-22T14:08:48.082Z,5.30
2022-09-22T14:11:19.500Z,5.93
2022-09-22T14:13:59.277Z,7.32
2022-09-22T14:16:32.413Z,10.35
2022-09-22T14:19:06.026Z,10.65
2022-09-22T14:21:41.253Z,7.25
2022-09-22T14:24:13.944Z,7.57
2022-09-22T14:26:47.516Z,5.38
2022-09-22T14:29:23.644Z,6.57
2022-09-22T14:31:56.412Z,8.07
2022-09-22T14:34:28.132Z,6.43
2022-09-22T14:36:56.589Z,7.25
2022-09-22T14:39:31.817Z,5.85
2022-09-22T14:42:08.900Z,7.63
2022-09-22T14:44:43.336Z,5.80
2022-09-22T14:47:24.055Z,5.45
2022-09-22T14:50:06.841Z,4.25
2022-09-22T14:52:39.123Z,5.10
2022-09-22T14:55:17.890Z,4.13
2022-09-22T14:57:49.015Z,4.10
2022-09-22T15:00:35.952Z,3.30
2022-09-22T15:03:08.368Z,4.65
2022-09-22T15:08:03.771Z,5.85
2022-09-22T15:10:35.157Z,6.32
2022-09-22T15:13:20.377Z,6.25
2022-09-22T15:15:50.132Z,4.18
2022-09-22T15:18:19.399Z,5.45
2022-09-22T15:20:51.809Z,3.83
2022-09-22T15:23:22.920Z,4.45
2022-09-22T15:25:54.172Z,3.55
2022-09-22T15:28:24.650Z,6.32
2022-09-22T15:30:53.538Z,5.65
2022-09-22T15:33:22.572Z,11.95
2022-09-22T15:35:54.493Z,6.72
2022-09-22T15:38:26.723Z,5.75
2022-09-22T15:40:57.324Z,8.85
2022-09-22T15:43:30.730Z,7.10
2022-09-22T15:46:01.490Z,5.30
2022-09-22T15:48:32.188Z,6.15
2022-09-22T15:51:04.406Z,5.97
2022-09-22T15:53:33.381Z,8.75
2022-09-22T15:56:05.272Z,8.93
2022-09-22T15:58:35.780Z,8.88
2022-09-22T16:01:05.561Z,7.28
2022-09-22T16:03:37.943Z,6.78
2022-09-22T16:06:12.703Z,7.65
2022-09-22T16:08:43.852Z,8.40
2022-09-22T16:11:15.586Z,7.15
2022-09-22T16:13:44.514Z,8.47
2022-09-22T16:16:12.567Z,10.93
2022-09-22T16:18:41.794Z,10.70
2022-09-22T16:21:19.555Z,9.68
2022-09-22T16:23:47.840Z,9.38
2022-09-22T16:26:17.374Z,7.80
2022-09-22T16:28:45.064Z,8.32
2022-09-22T16:31:13.601Z,11.07
2022-09-22T16:33:41.482Z,10.15
2022-09-22T16:36:09.256Z,11.45
2022-09-22T16:38:39.378Z,9.38
2022-09-22T16:41:08.769Z,10.40
2022-09-22T16:43:37.828Z,11.05
2022-09-22T16:46:23.861Z,9.07
2022-09-22T16:48:51.855Z,15.50
2022-09-22T16:51:20.526Z,14.20
2022-09-22T16:53:51.043Z,10.80
2022-09-22T16:56:18.901Z,13.52
2022-09-22T16:58:48.557Z,17.70
2022-09-22T17:01:19.762Z,14.77
2022-09-22T17:03:50.341Z,15.20
2022-09-22T17:06:23.050Z,14.10
2022-09-22T17:08:53.594Z,14.40
2022-09-22T17:11:23.352Z,13.05
2022-09-22T17:13:52.774Z,12.25
2022-09-22T17:16:24.655Z,12.18
2022-09-22T17:18:53.449Z,13.10
2022-09-22T17:21:22.761Z,11.13
2022-09-22T17:23:52.454Z,13.02
2022-09-22T17:26:21.308Z,14.10
2022-09-22T17:28:53.465Z,14.80
2022-09-22T17:31:23.567Z,11.63
2022-09-22T17:33:52.635Z,11.45
2022-09-22T17:36:23.867Z,9.20
2022-09-22T17:38:53.707Z,11.20
2022-09-22T17:41:24.045Z,9.15
2022-09-22T17:43:55.727Z,10.63
2022-09-22T17:46:26.118Z,9.88
2022-09-22T17:49:12.371Z,12.15
2022-09-22T17:52:02.000Z,10.40
2022-09-22T17:54:48.853Z,9.02
2022-09-22T17:57:19.122Z,8.98
2022-09-22T17:59:48.425Z,12.40
2022-09-22T18:02:18.637Z,12.52
2022-09-22T18:04:47.589Z,15.63
2022-09-22T18:07:17.874Z,12.95
2022-09-22T18:09:47.012Z,20.45
2022-09-22T18:12:21.193Z,13.43
2022-09-22T18:14:52.338Z,12.95
2022-09-22T18:17:23.101Z,12.52
2022-09-22T18:19:54.628Z,14.88
2022-09-22T18:22:23.950Z,12.77
2022-09-22T18:24:55.473Z,13.55
2022-09-22T18:27:26.905Z,12.57
2022-09-22T18:29:58.727Z,12.63
2022-09-22T18:34:55.516Z,16.63
2022-09-22T18:37:25.114Z,20.33
2022-09-22T18:39:52.977Z,17.55
2022-09-22T18:42:24.079Z,20.33
2022-09-22T18:44:52.721Z,23.53
2022-09-22T18:47:23.161Z,22.52
2022-09-22T18:49:51.388Z,21.10
2022-09-22T18:52:24.552Z,19.75
2022-09-22T18:54:54.527Z,25.02
2022-09-22T18:57:24.539Z,24.98
2022-09-22T18:59:54.123Z,21.48
2022-09-22T19:02:23.581Z,21.40
2022-09-22T19:04:52.186Z,19.55
2022-09-22T19:07:41.371Z,21.25
2022-09-22T19:10:12.557Z,16.17
2022-09-22T19:12:40.593Z,18.95
2022-09-22T19:15:13.544Z,16.30
2022-09-22T19:17:44.756Z,17.15
2022-09-22T19:20:14.523Z,13.02
2022-09-22T19:22:42.827Z,14.48
2022-09-22T19:25:11.602Z,16.10
2022-09-22T19:27:40.671Z,13.98
2022-09-22T19:30:09.866Z,12.23
2022-09-22T19:32:37.876Z,12.07
2022-09-22T19:35:08.449Z,10.40
2022-09-22T19:37:36.979Z,11.73
2022-09-22T19:40:05.907Z,9.02
2022-09-22T19:42:40.134Z,11.43
2022-09-22T19:45:09.045Z,13.25
2022-09-22T19:47:36.892Z,17.42
2022-09-22T19:50:07.981Z,12.07
2022-09-22T19:52:38.754Z,9.38
2022-09-22T19:55:07.373Z,11.98
2022-09-22T19:57:38.160Z,9.23
2022-09-22T20:00:06.928Z,14.95
2022-09-22T20:02:34.721Z,13.43
2022-09-22T20:05:02.469Z,12.90
2022-09-22T20:07:31.768Z,16.05
2022-09-22T20:10:02.800Z,16.80
2022-09-22T20:12:30.692Z,12.80
2022-09-22T20:14:58.825Z,18.58
2022-09-22T20:17:27.669Z,14.45
2022-09-22T20:19:55.390Z,12.70
2022-09-22T20:22:26.208Z,14.95
2022-09-22T20:24:57.217Z,14.32
2022-09-22T20:27:29.134Z,13.77
2022-09-22T20:29:57.810Z,11.10
2022-09-22T20:32:27.197Z,12.43
2022-09-22T20:34:56.528Z,11.52
2022-09-22T20:37:25.129Z,12.43
2022-09-22T20:39:53.498Z,16.52
2022-09-22T20:42:21.604Z,19.48
2022-09-22T20:44:51.034Z,13.55
2022-09-22T20:47:21.147Z,12.73
2022-09-22T20:49:51.933Z,11.70
2022-09-22T20:52:21.221Z,14.50
2022-09-22T20:54:49.574Z,14.98
2022-09-22T20:57:18.114Z,12.13
2022-09-22T20:59:46.324Z,11.95
2022-09-22T21:02:16.917Z,13.52
2022-09-22T21:04:45.054Z,12.07
2022-09-22T21:07:12.904Z,14.30
2022-09-22T21:09:58.553Z,10.43
2022-09-22T21:12:31.128Z,13.18
2022-09-22T21:14:59.501Z,13.75
2022-09-22T21:17:29.667Z,16.48
2022-09-22T21:19:57.814Z,14.18
2022-09-22T21:22:27.931Z,10.00
2022-09-22T21:24:56.361Z,13.52
2022-09-22T21:27:25.360Z,13.98
2022-09-22T21:29:53.467Z,13.35
2022-09-22T21:32:21.597Z,16.92
2022-09-22T21:34:51.269Z,15.45
2022-09-22T21:37:19.062Z,14.88
2022-09-22T21:39:47.484Z,20.77
2022-09-22T21:42:15.698Z,19.40
2022-09-22T21:44:43.546Z,20.50
2022-09-22T21:47:11.665Z,22.88
2022-09-22T21:49:39.457Z,35.55
2022-09-22T21:52:08.549Z,34.55
2022-09-22T21:54:37.159Z,36.30
2022-09-22T21:57:05.108Z,29.23
2022-09-22T21:59:32.838Z,28.15
2022-09-22T22:02:01.694Z,28.63
2022-09-22T22:04:29.611Z,25.98
2022-09-22T22:06:57.459Z,33.70
2022-09-22T22:09:26.978Z,30.70
2022-09-22T22:11:56.900Z,28.70
2022-09-22T22:14:26.293Z,30.27
2022-09-22T22:16:56.171Z,30.83
2022-09-22T22:19:27.005Z,29.70
2022-09-22T22:21:56.058Z,31.45
2022-09-22T22:24:33.197Z,28.15
2022-09-22T22:27:06.300Z,31.30
2022-09-22T22:29:36.359Z,31.80
2022-09-22T22:32:06.165Z,36.42
2022-09-22T22:34:34.410Z,38.15
2022-09-22T22:37:03.911Z,37.58
2022-09-22T22:39:32.561Z,35.05
2022-09-22T22:42:01.808Z,34.33
2022-09-22T22:44:29.702Z,42.22
2022-09-22T22:46:58.410Z,42.00
2022-09-22T22:49:27.134Z,40.95
2022-09-22T22:51:54.886Z,37.58
2022-09-22T22:54:23.117Z,46.40
2022-09-22T22:56:51.686Z,42.80
2022-09-22T22:59:20.994Z,53.33
2022-09-22T23:01:49.415Z,44.22
2022-09-22T23:04:17.610Z,40.75
2022-09-22T23:06:47.313Z,47.47
2022-09-22T23:09:17.825Z,42.00
2022-09-22T23:11:46.709Z,44.00
2022-09-22T23:14:15.971Z,47.42
2022-09-22T23:16:49.311Z,44.58
2022-09-22T23:19:18.700Z,40.65
2022-09-22T23:21:48.287Z,46.63
2022-09-22T23:24:18.942Z,49.85
2022-09-22T23:26:47.544Z,45.40
2022-09-22T23:29:15.428Z,45.67
2022-09-22T23:31:43.554Z,45.97
2022-09-22T23:34:13.021Z,43.60
2022-09-22T23:36:40.841Z,54.53
2022-09-22T23:39:09.192Z,47.50
2022-09-22T23:41:38.073Z,46.63
2022-09-22T23:44:07.524Z,51.13
2022-09-22T23:46:36.281Z,51.17
2022-09-22T23:49:05.270Z,51.63
2022-09-22T23:51:34.558Z,55.70
2022-09-22T23:54:02.479Z,55.78
2022-09-22T23:56:30.690Z,52.25
2022-09-22T23:58:58.753Z,52.78
